X  Stänga Metar väderdata för luftfart     LYNI Nis Airport
Temperatur
45°F Temperatur
39°F Daggpunkt
81% Fuktighet



Vind
1 MPH
2 KM/T
0 M/S
1 KTS



Lugn
N
Nuvarande omständigheter

Klar Klar
Tryck 1012.87 (hPa) - 29.91 (inHg)
Synlighet 6 (mil) - 9.7 (km)
Flygplats
Flygplatskod LYNI

Plats: Nis Airport
Distans: 63 (mi)

Metar:
LYNI 182030Z VRB01KT CAVOK 07/04 Q1013 NOSIG

Tid: 18-04-2024 22:30 CEST